sensor_id;sensor_type;location;lat;lon;timestamp;P1;durP1;ratioP1;P2;durP2;ratioP2
30169;SDS011;46426;51.368;5.254;2022-08-18T00:00:32;33.58;;;30.15;;
30169;SDS011;46426;51.368;5.254;2022-08-18T00:01:05;32.08;;;28.77;;
30169;SDS011;46426;51.368;5.254;2022-08-18T00:01:38;34.33;;;30.85;;
30169;SDS011;46426;51.368;5.254;2022-08-18T00:02:48;32.67;;;29.38;;
30169;SDS011;46426;51.368;5.254;2022-08-18T00:03:38;33.25;;;30.05;;
30169;SDS011;46426;51.368;5.254;2022-08-18T00:04:30;33.22;;;29.92;;
30169;SDS011;46426;51.368;5.254;2022-08-18T00:05:08;33.38;;;30.10;;
30169;SDS011;46426;51.368;5.254;2022-08-18T00:05:43;32.85;;;29.45;;
30169;SDS011;46426;51.368;5.254;2022-08-18T00:06:16;32.72;;;29.42;;
30169;SDS011;46426;51.368;5.254;2022-08-18T00:06:48;33.63;;;30.00;;
30169;SDS011;46426;51.368;5.254;2022-08-18T00:07:22;31.58;;;28.23;;
30169;SDS011;46426;51.368;5.254;2022-08-18T00:07:54;33.33;;;29.83;;
30169;SDS011;46426;51.368;5.254;2022-08-18T00:08:26;31.65;;;28.25;;
30169;SDS011;46426;51.368;5.254;2022-08-18T00:09:00;32.78;;;29.30;;
30169;SDS011;46426;51.368;5.254;2022-08-18T00:09:33;33.55;;;29.95;;
30169;SDS011;46426;51.368;5.254;2022-08-18T00:10:06;31.02;;;27.73;;
30169;SDS011;46426;51.368;5.254;2022-08-18T00:10:49;32.80;;;28.25;;
30169;SDS011;46426;51.368;5.254;2022-08-18T00:11:21;33.22;;;29.83;;
30169;SDS011;46426;51.368;5.254;2022-08-18T00:11:54;32.20;;;28.73;;
30169;SDS011;46426;51.368;5.254;2022-08-18T00:12:28;31.52;;;28.52;;
30169;SDS011;46426;51.368;5.254;2022-08-18T00:13:00;32.45;;;29.25;;
30169;SDS011;46426;51.368;5.254;2022-08-18T00:13:33;31.88;;;28.60;;
30169;SDS011;46426;51.368;5.254;2022-08-18T00:14:05;33.35;;;29.83;;
30169;SDS011;46426;51.368;5.254;2022-08-18T00:14:37;33.67;;;30.25;;
30169;SDS011;46426;51.368;5.254;2022-08-18T00:15:10;33.42;;;30.23;;
30169;SDS011;46426;51.368;5.254;2022-08-18T00:15:43;33.95;;;30.55;;
30169;SDS011;46426;51.368;5.254;2022-08-18T00:16:20;34.40;;;30.98;;
30169;SDS011;46426;51.368;5.254;2022-08-18T00:16:52;36.22;;;32.50;;
30169;SDS011;46426;51.368;5.254;2022-08-18T00:17:24;33.40;;;30.08;;
30169;SDS011;46426;51.368;5.254;2022-08-18T00:17:56;33.22;;;29.90;;
30169;SDS011;46426;51.368;5.254;2022-08-18T00:18:29;32.63;;;29.33;;
30169;SDS011;46426;51.368;5.254;2022-08-18T00:19:01;34.85;;;31.35;;
30169;SDS011;46426;51.368;5.254;2022-08-18T00:19:39;33.92;;;30.23;;
30169;SDS011;46426;51.368;5.254;2022-08-18T00:20:20;32.95;;;29.65;;
30169;SDS011;46426;51.368;5.254;2022-08-18T00:20:52;34.05;;;30.67;;
30169;SDS011;46426;51.368;5.254;2022-08-18T00:21:24;34.47;;;30.98;;
30169;SDS011;46426;51.368;5.254;2022-08-18T00:21:57;35.53;;;31.98;;
30169;SDS011;46426;51.368;5.254;2022-08-18T00:22:29;34.75;;;31.30;;
30169;SDS011;46426;51.368;5.254;2022-08-18T00:23:01;34.33;;;30.77;;
30169;SDS011;46426;51.368;5.254;2022-08-18T00:23:33;31.67;;;28.48;;
30169;SDS011;46426;51.368;5.254;2022-08-18T00:24:05;33.60;;;30.20;;
30169;SDS011;46426;51.368;5.254;2022-08-18T00:24:37;34.45;;;30.83;;
30169;SDS011;46426;51.368;5.254;2022-08-18T00:25:19;33.47;;;29.98;;
30169;SDS011;46426;51.368;5.254;2022-08-18T00:25:51;32.75;;;29.45;;
30169;SDS011;46426;51.368;5.254;2022-08-18T00:26:23;31.77;;;28.50;;
30169;SDS011;46426;51.368;5.254;2022-08-18T00:26:56;33.30;;;29.90;;
30169;SDS011;46426;51.368;5.254;2022-08-18T00:27:29;33.20;;;29.77;;
30169;SDS011;46426;51.368;5.254;2022-08-18T00:28:01;33.47;;;30.08;;
30169;SDS011;46426;51.368;5.254;2022-08-18T00:28:33;33.90;;;30.25;;
30169;SDS011;46426;51.368;5.254;2022-08-18T00:29:05;33.20;;;29.70;;
30169;SDS011;46426;51.368;5.254;2022-08-18T00:29:37;34.92;;;31.33;;
30169;SDS011;46426;51.368;5.254;2022-08-18T00:30:13;33.33;;;29.95;;
30169;SDS011;46426;51.368;5.254;2022-08-18T00:30:46;33.90;;;30.50;;
30169;SDS011;46426;51.368;5.254;2022-08-18T00:31:24;31.98;;;28.75;;
30169;SDS011;46426;51.368;5.254;2022-08-18T00:31:56;33.50;;;30.10;;
30169;SDS011;46426;51.368;5.254;2022-08-18T00:32:33;31.83;;;28.52;;
30169;SDS011;46426;51.368;5.254;2022-08-18T00:33:05;33.67;;;30.27;;
30169;SDS011;46426;51.368;5.254;2022-08-18T00:33:37;34.17;;;30.75;;
30169;SDS011;46426;51.368;5.254;2022-08-18T00:34:09;30.95;;;28.00;;
30169;SDS011;46426;51.368;5.254;2022-08-18T00:34:41;33.17;;;29.90;;
30169;SDS011;46426;51.368;5.254;2022-08-18T00:35:15;33.13;;;29.90;;
30169;SDS011;46426;51.368;5.254;2022-08-18T00:35:48;32.67;;;29.48;;
30169;SDS011;46426;51.368;5.254;2022-08-18T00:36:21;34.60;;;31.15;;
30169;SDS011;46426;51.368;5.254;2022-08-18T00:36:53;34.95;;;31.55;;
30169;SDS011;46426;51.368;5.254;2022-08-18T00:37:25;33.10;;;29.70;;
30169;SDS011;46426;51.368;5.254;2022-08-18T00:37:57;33.30;;;29.90;;
30169;SDS011;46426;51.368;5.254;2022-08-18T00:38:30;34.60;;;31.25;;
30169;SDS011;46426;51.368;5.254;2022-08-18T00:39:02;35.50;;;31.90;;
30169;SDS011;46426;51.368;5.254;2022-08-18T00:39:34;36.35;;;32.45;;
30169;SDS011;46426;51.368;5.254;2022-08-18T00:40:20;35.47;;;31.77;;
30169;SDS011;46426;51.368;5.254;2022-08-18T00:40:53;36.60;;;32.70;;
30169;SDS011;46426;51.368;5.254;2022-08-18T00:41:25;35.13;;;31.45;;
30169;SDS011;46426;51.368;5.254;2022-08-18T00:41:58;34.65;;;30.85;;
30169;SDS011;46426;51.368;5.254;2022-08-18T00:42:30;33.72;;;30.42;;
30169;SDS011;46426;51.368;5.254;2022-08-18T00:43:04;34.53;;;30.92;;
30169;SDS011;46426;51.368;5.254;2022-08-18T00:43:41;33.13;;;29.67;;
30169;SDS011;46426;51.368;5.254;2022-08-18T00:44:14;34.65;;;31.05;;
30169;SDS011;46426;51.368;5.254;2022-08-18T00:44:47;35.70;;;32.30;;
30169;SDS011;46426;51.368;5.254;2022-08-18T00:45:21;35.65;;;31.85;;
30169;SDS011;46426;51.368;5.254;2022-08-18T00:45:54;34.08;;;30.60;;
30169;SDS011;46426;51.368;5.254;2022-08-18T00:46:27;35.20;;;31.45;;
30169;SDS011;46426;51.368;5.254;2022-08-18T00:47:00;35.47;;;31.73;;
30169;SDS011;46426;51.368;5.254;2022-08-18T00:47:32;34.88;;;31.27;;
30169;SDS011;46426;51.368;5.254;2022-08-18T00:48:22;36.05;;;32.33;;
30169;SDS011;46426;51.368;5.254;2022-08-18T00:48:55;37.22;;;31.05;;
30169;SDS011;46426;51.368;5.254;2022-08-18T00:49:27;34.75;;;31.13;;
30169;SDS011;46426;51.368;5.254;2022-08-18T00:49:59;34.03;;;30.58;;
30169;SDS011;46426;51.368;5.254;2022-08-18T00:50:38;35.25;;;31.67;;
30169;SDS011;46426;51.368;5.254;2022-08-18T00:51:15;35.28;;;31.58;;
30169;SDS011;46426;51.368;5.254;2022-08-18T00:51:48;35.30;;;31.70;;
30169;SDS011;46426;51.368;5.254;2022-08-18T00:52:21;34.20;;;30.58;;
30169;SDS011;46426;51.368;5.254;2022-08-18T00:52:55;33.17;;;29.88;;
30169;SDS011;46426;51.368;5.254;2022-08-18T00:54:35;34.30;;;30.88;;
30169;SDS011;46426;51.368;5.254;2022-08-18T00:55:08;35.58;;;31.77;;
30169;SDS011;46426;51.368;5.254;2022-08-18T00:55:40;34.42;;;31.02;;
30169;SDS011;46426;51.368;5.254;2022-08-18T00:56:26;35.45;;;31.95;;
30169;SDS011;46426;51.368;5.254;2022-08-18T00:57:00;37.95;;;33.95;;
30169;SDS011;46426;51.368;5.254;2022-08-18T00:57:33;36.20;;;32.53;;
30169;SDS011;46426;51.368;5.254;2022-08-18T00:58:07;35.97;;;32.25;;
30169;SDS011;46426;51.368;5.254;2022-08-18T01:00:21;35.53;;;31.77;;
30169;SDS011;46426;51.368;5.254;2022-08-18T01:00:53;35.45;;;31.63;;
30169;SDS011;46426;51.368;5.254;2022-08-18T01:01:27;34.40;;;30.80;;
30169;SDS011;46426;51.368;5.254;2022-08-18T01:02:01;36.47;;;32.67;;
30169;SDS011;46426;51.368;5.254;2022-08-18T01:02:35;37.35;;;33.55;;
30169;SDS011;46426;51.368;5.254;2022-08-18T01:03:09;38.05;;;34.20;;
30169;SDS011;46426;51.368;5.254;2022-08-18T01:03:43;35.58;;;32.13;;
30169;SDS011;46426;51.368;5.254;2022-08-18T01:05:54;37.13;;;33.25;;
30169;SDS011;46426;51.368;5.254;2022-08-18T01:06:28;38.95;;;33.78;;
30169;SDS011;46426;51.368;5.254;2022-08-18T01:07:07;36.70;;;33.08;;
30169;SDS011;46426;51.368;5.254;2022-08-18T01:07:43;35.72;;;32.03;;
30169;SDS011;46426;51.368;5.254;2022-08-18T01:08:18;36.60;;;32.70;;
30169;SDS011;46426;51.368;5.254;2022-08-18T01:09:00;37.03;;;33.22;;
30169;SDS011;46426;51.368;5.254;2022-08-18T01:09:34;36.45;;;32.85;;
30169;SDS011;46426;51.368;5.254;2022-08-18T01:10:06;34.88;;;31.42;;
30169;SDS011;46426;51.368;5.254;2022-08-18T01:10:38;37.45;;;33.58;;
30169;SDS011;46426;51.368;5.254;2022-08-18T01:11:11;37.55;;;33.45;;
30169;SDS011;46426;51.368;5.254;2022-08-18T01:11:43;37.05;;;33.35;;
30169;SDS011;46426;51.368;5.254;2022-08-18T01:12:15;38.40;;;34.20;;
30169;SDS011;46426;51.368;5.254;2022-08-18T01:13:08;36.42;;;32.75;;
30169;SDS011;46426;51.368;5.254;2022-08-18T01:13:40;37.63;;;33.72;;
30169;SDS011;46426;51.368;5.254;2022-08-18T01:14:13;37.47;;;33.47;;
30169;SDS011;46426;51.368;5.254;2022-08-18T01:14:46;37.13;;;33.47;;
30169;SDS011;46426;51.368;5.254;2022-08-18T01:15:19;37.40;;;33.53;;
30169;SDS011;46426;51.368;5.254;2022-08-18T01:15:59;37.20;;;33.30;;
30169;SDS011;46426;51.368;5.254;2022-08-18T01:16:51;36.72;;;33.03;;
30169;SDS011;46426;51.368;5.254;2022-08-18T01:17:42;35.08;;;31.45;;
30169;SDS011;46426;51.368;5.254;2022-08-18T01:18:33;36.28;;;32.38;;
30169;SDS011;46426;51.368;5.254;2022-08-18T01:19:24;36.70;;;32.85;;
30169;SDS011;46426;51.368;5.254;2022-08-18T01:20:17;37.75;;;33.85;;
30169;SDS011;46426;51.368;5.254;2022-08-18T01:22:04;36.25;;;32.58;;
30169;SDS011;46426;51.368;5.254;2022-08-18T01:22:47;36.40;;;32.47;;
30169;SDS011;46426;51.368;5.254;2022-08-18T01:23:20;36.63;;;32.90;;
30169;SDS011;46426;51.368;5.254;2022-08-18T01:23:52;36.75;;;32.90;;
30169;SDS011;46426;51.368;5.254;2022-08-18T01:24:27;37.50;;;33.47;;
30169;SDS011;46426;51.368;5.254;2022-08-18T01:25:18;38.05;;;33.97;;
30169;SDS011;46426;51.368;5.254;2022-08-18T01:26:10;37.58;;;33.67;;
30169;SDS011;46426;51.368;5.254;2022-08-18T01:26:42;36.42;;;32.70;;
30169;SDS011;46426;51.368;5.254;2022-08-18T01:27:17;35.70;;;32.05;;
30169;SDS011;46426;51.368;5.254;2022-08-18T01:27:50;35.00;;;31.23;;
30169;SDS011;46426;51.368;5.254;2022-08-18T01:28:23;37.85;;;33.80;;
30169;SDS011;46426;51.368;5.254;2022-08-18T01:28:59;37.97;;;34.17;;
30169;SDS011;46426;51.368;5.254;2022-08-18T01:29:35;37.83;;;33.88;;
30169;SDS011;46426;51.368;5.254;2022-08-18T01:30:15;35.75;;;31.80;;
30169;SDS011;46426;51.368;5.254;2022-08-18T01:30:50;36.00;;;32.33;;
30169;SDS011;46426;51.368;5.254;2022-08-18T01:31:29;36.20;;;32.45;;
30169;SDS011;46426;51.368;5.254;2022-08-18T01:32:04;38.22;;;33.72;;
30169;SDS011;46426;51.368;5.254;2022-08-18T01:32:37;37.45;;;33.50;;
30169;SDS011;46426;51.368;5.254;2022-08-18T01:33:09;37.55;;;33.75;;
30169;SDS011;46426;51.368;5.254;2022-08-18T01:33:43;37.08;;;33.28;;
30169;SDS011;46426;51.368;5.254;2022-08-18T01:34:15;36.95;;;33.05;;
30169;SDS011;46426;51.368;5.254;2022-08-18T01:34:48;36.30;;;32.60;;
30169;SDS011;46426;51.368;5.254;2022-08-18T01:35:22;37.22;;;33.42;;
30169;SDS011;46426;51.368;5.254;2022-08-18T01:35:54;35.72;;;31.98;;
30169;SDS011;46426;51.368;5.254;2022-08-18T01:36:26;36.85;;;33.00;;
30169;SDS011;46426;51.368;5.254;2022-08-18T01:36:59;36.67;;;32.63;;
30169;SDS011;46426;51.368;5.254;2022-08-18T01:37:31;36.42;;;32.50;;
30169;SDS011;46426;51.368;5.254;2022-08-18T01:38:03;36.05;;;32.25;;
30169;SDS011;46426;51.368;5.254;2022-08-18T01:38:36;38.53;;;34.47;;
30169;SDS011;46426;51.368;5.254;2022-08-18T01:39:11;37.30;;;33.60;;
30169;SDS011;46426;51.368;5.254;2022-08-18T01:39:43;37.95;;;33.90;;
30169;SDS011;46426;51.368;5.254;2022-08-18T01:40:35;37.95;;;33.88;;
30169;SDS011;46426;51.368;5.254;2022-08-18T01:41:27;38.20;;;33.72;;
30169;SDS011;46426;51.368;5.254;2022-08-18T01:42:02;37.00;;;33.10;;
30169;SDS011;46426;51.368;5.254;2022-08-18T01:42:35;36.13;;;30.73;;
30169;SDS011;46426;51.368;5.254;2022-08-18T01:43:07;39.40;;;34.95;;
30169;SDS011;46426;51.368;5.254;2022-08-18T01:43:39;34.92;;;31.38;;
30169;SDS011;46426;51.368;5.254;2022-08-18T01:44:11;36.55;;;32.85;;
30169;SDS011;46426;51.368;5.254;2022-08-18T01:44:44;37.17;;;33.33;;
30169;SDS011;46426;51.368;5.254;2022-08-18T01:45:18;37.05;;;33.20;;
30169;SDS011;46426;51.368;5.254;2022-08-18T01:45:51;37.78;;;33.90;;
30169;SDS011;46426;51.368;5.254;2022-08-18T01:46:23;37.45;;;32.10;;
30169;SDS011;46426;51.368;5.254;2022-08-18T01:46:55;36.50;;;32.72;;
30169;SDS011;46426;51.368;5.254;2022-08-18T01:47:27;35.80;;;31.92;;
30169;SDS011;46426;51.368;5.254;2022-08-18T01:48:03;36.30;;;32.40;;
30169;SDS011;46426;51.368;5.254;2022-08-18T01:48:38;35.70;;;31.90;;
30169;SDS011;46426;51.368;5.254;2022-08-18T01:49:10;36.05;;;32.38;;
30169;SDS011;46426;51.368;5.254;2022-08-18T01:49:44;35.17;;;31.60;;
30169;SDS011;46426;51.368;5.254;2022-08-18T01:50:16;37.55;;;33.78;;
30169;SDS011;46426;51.368;5.254;2022-08-18T01:50:48;37.03;;;33.35;;
30169;SDS011;46426;51.368;5.254;2022-08-18T01:51:20;37.95;;;34.15;;
30169;SDS011;46426;51.368;5.254;2022-08-18T01:52:15;38.15;;;34.00;;
30169;SDS011;46426;51.368;5.254;2022-08-18T01:52:50;37.83;;;33.95;;
30169;SDS011;46426;51.368;5.254;2022-08-18T01:53:24;37.60;;;33.65;;
30169;SDS011;46426;51.368;5.254;2022-08-18T01:53:58;36.45;;;32.65;;
30169;SDS011;46426;51.368;5.254;2022-08-18T01:54:30;37.03;;;33.30;;
30169;SDS011;46426;51.368;5.254;2022-08-18T01:55:02;36.90;;;33.20;;
30169;SDS011;46426;51.368;5.254;2022-08-18T01:55:36;36.70;;;33.00;;
30169;SDS011;46426;51.368;5.254;2022-08-18T01:56:09;37.00;;;33.08;;
30169;SDS011;46426;51.368;5.254;2022-08-18T01:56:41;36.70;;;32.17;;
30169;SDS011;46426;51.368;5.254;2022-08-18T01:57:13;36.90;;;33.00;;
30169;SDS011;46426;51.368;5.254;2022-08-18T01:57:46;37.75;;;33.80;;
30169;SDS011;46426;51.368;5.254;2022-08-18T01:58:18;37.45;;;33.63;;
30169;SDS011;46426;51.368;5.254;2022-08-18T01:58:53;37.80;;;33.78;;
30169;SDS011;46426;51.368;5.254;2022-08-18T01:59:27;36.42;;;32.67;;
30169;SDS011;46426;51.368;5.254;2022-08-18T01:59:59;37.60;;;33.70;;
30169;SDS011;46426;51.368;5.254;2022-08-18T02:00:32;36.88;;;33.13;;
30169;SDS011;46426;51.368;5.254;2022-08-18T02:01:04;38.10;;;33.70;;
30169;SDS011;46426;51.368;5.254;2022-08-18T02:01:37;37.15;;;33.17;;
30169;SDS011;46426;51.368;5.254;2022-08-18T02:02:24;37.30;;;33.15;;
30169;SDS011;46426;51.368;5.254;2022-08-18T02:02:57;37.88;;;34.03;;
30169;SDS011;46426;51.368;5.254;2022-08-18T02:03:35;38.13;;;34.13;;
30169;SDS011;46426;51.368;5.254;2022-08-18T02:04:07;36.65;;;32.75;;
30169;SDS011;46426;51.368;5.254;2022-08-18T02:05:06;37.78;;;33.88;;
30169;SDS011;46426;51.368;5.254;2022-08-18T02:05:40;36.70;;;32.85;;
30169;SDS011;46426;51.368;5.254;2022-08-18T02:06:14;38.60;;;33.67;;
30169;SDS011;46426;51.368;5.254;2022-08-18T02:06:47;37.00;;;33.08;;
30169;SDS011;46426;51.368;5.254;2022-08-18T02:07:20;37.65;;;33.80;;
30169;SDS011;46426;51.368;5.254;2022-08-18T02:07:58;38.10;;;34.15;;
30169;SDS011;46426;51.368;5.254;2022-08-18T02:08:30;36.72;;;32.80;;
30169;SDS011;46426;51.368;5.254;2022-08-18T02:09:04;36.92;;;33.25;;
30169;SDS011;46426;51.368;5.254;2022-08-18T02:09:37;37.22;;;33.33;;
30169;SDS011;46426;51.368;5.254;2022-08-18T02:10:09;38.05;;;34.03;;
30169;SDS011;46426;51.368;5.254;2022-08-18T02:10:43;36.28;;;32.30;;
30169;SDS011;46426;51.368;5.254;2022-08-18T02:11:15;38.13;;;34.33;;
30169;SDS011;46426;51.368;5.254;2022-08-18T02:11:47;35.88;;;32.15;;
30169;SDS011;46426;51.368;5.254;2022-08-18T02:12:19;39.15;;;34.95;;
30169;SDS011;46426;51.368;5.254;2022-08-18T02:12:51;37.05;;;33.13;;
30169;SDS011;46426;51.368;5.254;2022-08-18T02:13:24;36.78;;;32.78;;
30169;SDS011;46426;51.368;5.254;2022-08-18T02:13:56;39.58;;;35.45;;
30169;SDS011;46426;51.368;5.254;2022-08-18T02:14:28;37.42;;;33.53;;
30169;SDS011;46426;51.368;5.254;2022-08-18T02:15:03;36.03;;;32.45;;
30169;SDS011;46426;51.368;5.254;2022-08-18T02:15:35;36.85;;;33.15;;
30169;SDS011;46426;51.368;5.254;2022-08-18T02:16:07;35.58;;;31.88;;
30169;SDS011;46426;51.368;5.254;2022-08-18T02:16:40;37.17;;;33.33;;
30169;SDS011;46426;51.368;5.254;2022-08-18T02:17:12;38.00;;;34.00;;
30169;SDS011;46426;51.368;5.254;2022-08-18T02:17:44;35.90;;;32.30;;
30169;SDS011;46426;51.368;5.254;2022-08-18T02:18:18;36.80;;;32.97;;
30169;SDS011;46426;51.368;5.254;2022-08-18T02:19:11;37.20;;;33.08;;
30169;SDS011;46426;51.368;5.254;2022-08-18T02:19:44;37.40;;;33.47;;
30169;SDS011;46426;51.368;5.254;2022-08-18T02:20:17;37.15;;;33.13;;
30169;SDS011;46426;51.368;5.254;2022-08-18T02:20:49;36.42;;;31.85;;
30169;SDS011;46426;51.368;5.254;2022-08-18T02:21:21;37.00;;;33.05;;
30169;SDS011;46426;51.368;5.254;2022-08-18T02:21:54;37.40;;;33.60;;
30169;SDS011;46426;51.368;5.254;2022-08-18T02:22:26;38.15;;;34.15;;
30169;SDS011;46426;51.368;5.254;2022-08-18T02:22:58;36.35;;;32.50;;
30169;SDS011;46426;51.368;5.254;2022-08-18T02:23:32;36.50;;;32.55;;
30169;SDS011;46426;51.368;5.254;2022-08-18T02:24:04;36.67;;;32.88;;
30169;SDS011;46426;51.368;5.254;2022-08-18T02:24:37;38.00;;;34.00;;
30169;SDS011;46426;51.368;5.254;2022-08-18T02:25:09;36.38;;;32.58;;
30169;SDS011;46426;51.368;5.254;2022-08-18T02:25:41;36.25;;;32.53;;
30169;SDS011;46426;51.368;5.254;2022-08-18T02:26:15;38.30;;;34.20;;
30169;SDS011;46426;51.368;5.254;2022-08-18T02:26:49;37.25;;;33.42;;
30169;SDS011;46426;51.368;5.254;2022-08-18T02:27:21;37.15;;;33.15;;
30169;SDS011;46426;51.368;5.254;2022-08-18T02:27:53;37.63;;;33.63;;
30169;SDS011;46426;51.368;5.254;2022-08-18T02:28:25;36.70;;;32.80;;
30169;SDS011;46426;51.368;5.254;2022-08-18T02:29:01;35.92;;;32.30;;
30169;SDS011;46426;51.368;5.254;2022-08-18T02:29:33;34.13;;;30.65;;
30169;SDS011;46426;51.368;5.254;2022-08-18T02:30:09;37.22;;;33.33;;
30169;SDS011;46426;51.368;5.254;2022-08-18T02:30:42;36.80;;;33.00;;
30169;SDS011;46426;51.368;5.254;2022-08-18T02:31:16;38.88;;;34.90;;
30169;SDS011;46426;51.368;5.254;2022-08-18T02:31:48;36.40;;;32.40;;
30169;SDS011;46426;51.368;5.254;2022-08-18T02:32:20;35.20;;;31.58;;
30169;SDS011;46426;51.368;5.254;2022-08-18T02:32:53;35.65;;;31.77;;
30169;SDS011;46426;51.368;5.254;2022-08-18T02:33:27;36.28;;;32.47;;
30169;SDS011;46426;51.368;5.254;2022-08-18T02:33:59;36.78;;;32.80;;
30169;SDS011;46426;51.368;5.254;2022-08-18T02:34:31;37.67;;;33.72;;
30169;SDS011;46426;51.368;5.254;2022-08-18T02:35:04;36.88;;;32.83;;
30169;SDS011;46426;51.368;5.254;2022-08-18T02:35:42;37.72;;;33.67;;
30169;SDS011;46426;51.368;5.254;2022-08-18T02:36:17;35.75;;;32.03;;
30169;SDS011;46426;51.368;5.254;2022-08-18T02:36:49;36.08;;;32.38;;
30169;SDS011;46426;51.368;5.254;2022-08-18T02:37:21;37.65;;;33.55;;
30169;SDS011;46426;51.368;5.254;2022-08-18T02:37:53;37.92;;;33.97;;
30169;SDS011;46426;51.368;5.254;2022-08-18T02:38:25;39.30;;;33.90;;
30169;SDS011;46426;51.368;5.254;2022-08-18T02:39:04;35.47;;;31.70;;
30169;SDS011;46426;51.368;5.254;2022-08-18T02:39:36;36.28;;;32.38;;
30169;SDS011;46426;51.368;5.254;2022-08-18T02:40:09;37.75;;;33.88;;
30169;SDS011;46426;51.368;5.254;2022-08-18T02:40:46;37.70;;;33.60;;
30169;SDS011;46426;51.368;5.254;2022-08-18T02:41:18;38.08;;;34.13;;
30169;SDS011;46426;51.368;5.254;2022-08-18T02:41:51;38.65;;;34.55;;
30169;SDS011;46426;51.368;5.254;2022-08-18T02:42:24;38.80;;;33.75;;
30169;SDS011;46426;51.368;5.254;2022-08-18T02:42:56;37.33;;;33.40;;
30169;SDS011;46426;51.368;5.254;2022-08-18T02:43:28;37.42;;;33.53;;
30169;SDS011;46426;51.368;5.254;2022-08-18T02:44:07;39.55;;;35.38;;
30169;SDS011;46426;51.368;5.254;2022-08-18T02:44:39;39.83;;;35.55;;
30169;SDS011;46426;51.368;5.254;2022-08-18T02:45:11;39.42;;;35.33;;
30169;SDS011;46426;51.368;5.254;2022-08-18T02:45:44;41.25;;;36.90;;
30169;SDS011;46426;51.368;5.254;2022-08-18T02:46:15;40.20;;;35.95;;
30169;SDS011;46426;51.368;5.254;2022-08-18T02:46:50;38.47;;;33.90;;
30169;SDS011;46426;51.368;5.254;2022-08-18T02:47:22;41.28;;;36.75;;
30169;SDS011;46426;51.368;5.254;2022-08-18T02:47:55;41.05;;;36.25;;
30169;SDS011;46426;51.368;5.254;2022-08-18T02:48:27;39.90;;;35.72;;
30169;SDS011;46426;51.368;5.254;2022-08-18T02:49:08;39.60;;;35.30;;
30169;SDS011;46426;51.368;5.254;2022-08-18T02:49:40;39.85;;;35.55;;
30169;SDS011;46426;51.368;5.254;2022-08-18T02:50:12;38.83;;;34.83;;
30169;SDS011;46426;51.368;5.254;2022-08-18T02:50:44;39.45;;;35.05;;
30169;SDS011;46426;51.368;5.254;2022-08-18T02:51:18;41.13;;;36.72;;
30169;SDS011;46426;51.368;5.254;2022-08-18T02:51:50;38.75;;;34.60;;
30169;SDS011;46426;51.368;5.254;2022-08-18T02:52:23;39.22;;;35.20;;
30169;SDS011;46426;51.368;5.254;2022-08-18T02:53:00;40.75;;;36.35;;
30169;SDS011;46426;51.368;5.254;2022-08-18T02:53:32;40.35;;;36.00;;
30169;SDS011;46426;51.368;5.254;2022-08-18T02:54:04;40.35;;;36.03;;
30169;SDS011;46426;51.368;5.254;2022-08-18T02:54:42;40.92;;;35.97;;
30169;SDS011;46426;51.368;5.254;2022-08-18T02:55:14;39.47;;;35.28;;
30169;SDS011;46426;51.368;5.254;2022-08-18T02:55:46;41.05;;;36.63;;
30169;SDS011;46426;51.368;5.254;2022-08-18T02:56:20;41.88;;;37.03;;
30169;SDS011;46426;51.368;5.254;2022-08-18T02:57:12;41.33;;;36.85;;
30169;SDS011;46426;51.368;5.254;2022-08-18T02:57:45;41.58;;;37.08;;
30169;SDS011;46426;51.368;5.254;2022-08-18T02:58:17;40.85;;;36.47;;
30169;SDS011;46426;51.368;5.254;2022-08-18T02:58:52;40.53;;;35.80;;
30169;SDS011;46426;51.368;5.254;2022-08-18T02:59:25;39.38;;;35.20;;
30169;SDS011;46426;51.368;5.254;2022-08-18T02:59:59;40.92;;;36.53;;
30169;SDS011;46426;51.368;5.254;2022-08-18T03:00:32;40.88;;;36.15;;
30169;SDS011;46426;51.368;5.254;2022-08-18T03:01:04;41.95;;;37.45;;
30169;SDS011;46426;51.368;5.254;2022-08-18T03:01:37;41.08;;;36.17;;
30169;SDS011;46426;51.368;5.254;2022-08-18T03:02:10;41.28;;;36.63;;
30169;SDS011;46426;51.368;5.254;2022-08-18T03:02:49;40.30;;;36.20;;
30169;SDS011;46426;51.368;5.254;2022-08-18T03:03:22;41.40;;;36.72;;
30169;SDS011;46426;51.368;5.254;2022-08-18T03:03:54;43.25;;;37.28;;
30169;SDS011;46426;51.368;5.254;2022-08-18T03:04:27;39.63;;;35.42;;
30169;SDS011;46426;51.368;5.254;2022-08-18T03:05:01;41.58;;;36.08;;
30169;SDS011;46426;51.368;5.254;2022-08-18T03:05:33;39.28;;;35.28;;
30169;SDS011;46426;51.368;5.254;2022-08-18T03:06:05;40.72;;;36.38;;
30169;SDS011;46426;51.368;5.254;2022-08-18T03:06:37;41.85;;;35.67;;
30169;SDS011;46426;51.368;5.254;2022-08-18T03:07:10;42.20;;;36.28;;
30169;SDS011;46426;51.368;5.254;2022-08-18T03:07:42;40.10;;;35.95;;
30169;SDS011;46426;51.368;5.254;2022-08-18T03:08:14;41.85;;;37.10;;
30169;SDS011;46426;51.368;5.254;2022-08-18T03:08:46;41.33;;;36.83;;
30169;SDS011;46426;51.368;5.254;2022-08-18T03:09:20;39.75;;;35.50;;
30169;SDS011;46426;51.368;5.254;2022-08-18T03:09:52;41.13;;;36.45;;
30169;SDS011;46426;51.368;5.254;2022-08-18T03:10:24;42.03;;;37.60;;
30169;SDS011;46426;51.368;5.254;2022-08-18T03:11:04;40.75;;;36.53;;
30169;SDS011;46426;51.368;5.254;2022-08-18T03:11:36;38.67;;;34.47;;
30169;SDS011;46426;51.368;5.254;2022-08-18T03:12:09;41.13;;;36.42;;
30169;SDS011;46426;51.368;5.254;2022-08-18T03:12:41;41.78;;;37.08;;
30169;SDS011;46426;51.368;5.254;2022-08-18T03:13:13;39.35;;;35.25;;
30169;SDS011;46426;51.368;5.254;2022-08-18T03:13:46;39.35;;;35.28;;
30169;SDS011;46426;51.368;5.254;2022-08-18T03:14:18;39.78;;;35.45;;
30169;SDS011;46426;51.368;5.254;2022-08-18T03:14:50;40.53;;;36.25;;
30169;SDS011;46426;51.368;5.254;2022-08-18T03:15:22;38.55;;;34.45;;
30169;SDS011;46426;51.368;5.254;2022-08-18T03:15:57;40.40;;;36.13;;
30169;SDS011;46426;51.368;5.254;2022-08-18T03:16:29;40.55;;;36.25;;
30169;SDS011;46426;51.368;5.254;2022-08-18T03:17:05;40.45;;;36.22;;
30169;SDS011;46426;51.368;5.254;2022-08-18T03:17:39;37.85;;;34.05;;
30169;SDS011;46426;51.368;5.254;2022-08-18T03:18:11;41.13;;;36.67;;
30169;SDS011;46426;51.368;5.254;2022-08-18T03:18:44;41.05;;;36.80;;
30169;SDS011;46426;51.368;5.254;2022-08-18T03:19:17;39.30;;;35.10;;
30169;SDS011;46426;51.368;5.254;2022-08-18T03:19:49;39.10;;;34.95;;
30169;SDS011;46426;51.368;5.254;2022-08-18T03:20:23;39.65;;;35.45;;
30169;SDS011;46426;51.368;5.254;2022-08-18T03:21:08;40.72;;;36.50;;
30169;SDS011;46426;51.368;5.254;2022-08-18T03:21:42;39.00;;;34.92;;
30169;SDS011;46426;51.368;5.254;2022-08-18T03:22:15;41.15;;;36.88;;
30169;SDS011;46426;51.368;5.254;2022-08-18T03:23:01;39.17;;;35.08;;
30169;SDS011;46426;51.368;5.254;2022-08-18T03:23:40;40.00;;;35.72;;
30169;SDS011;46426;51.368;5.254;2022-08-18T03:24:13;40.30;;;35.80;;
30169;SDS011;46426;51.368;5.254;2022-08-18T03:24:53;37.88;;;33.97;;
30169;SDS011;46426;51.368;5.254;2022-08-18T03:25:25;39.67;;;35.38;;
30169;SDS011;46426;51.368;5.254;2022-08-18T03:25:57;41.08;;;36.63;;
30169;SDS011;46426;51.368;5.254;2022-08-18T03:26:30;39.72;;;35.53;;
30169;SDS011;46426;51.368;5.254;2022-08-18T03:27:03;38.85;;;34.72;;
30169;SDS011;46426;51.368;5.254;2022-08-18T03:27:36;39.78;;;35.58;;
30169;SDS011;46426;51.368;5.254;2022-08-18T03:28:08;40.00;;;35.10;;